Time;durP1;ratioP1;P1;durP2;ratioP2;P2;SDS_P1;SDS_P2;PMS_P1;PMS_P2;Temp;Humidity;BMP_temperature;BMP_pressure;BME280_temperature;BME280_humidity;BME280_pressure;Samples;Min_cycle;Max_cycle;Signal;HPM_P1;HPM_P2
2023/03/12 00:00:58;;;;;;;17.20;12.87;;;-0.80;85.50;;;-1.12;76.04;97615.09;5088123;28;20958;-70
2023/03/12 00:03:26;;;;;;;20.97;14.77;;;-0.70;85.80;;;-1.31;76.58;97601.81;5093536;28;20517;-69
2023/03/12 00:05:55;;;;;;;17.83;13.00;;;-0.70;85.40;;;-1.31;76.90;97617.72;5086199;28;20448;-70
2023/03/12 00:08:22;;;;;;;14.73;12.00;;;-0.80;85.40;;;-1.30;77.09;97623.84;5092662;28;21014;-70
2023/03/12 00:10:49;;;;;;;16.73;12.07;;;-0.80;85.40;;;-1.32;76.69;97624.00;5108376;28;20442;-71
2023/03/12 00:13:16;;;;;;;15.13;12.10;;;-0.80;85.50;;;-1.38;76.88;97615.81;5110607;28;20436;-69
2023/03/12 00:15:44;;;;;;;13.87;11.27;;;-0.80;85.60;;;-1.22;76.34;97623.94;5091462;28;20455;-71
2023/03/12 00:18:11;;;;;;;15.60;11.73;;;-0.80;85.60;;;-1.41;76.05;97616.94;5100172;27;20461;-72
2023/03/12 00:20:38;;;;;;;15.30;10.13;;;-0.80;85.40;;;-1.36;76.30;97630.59;5074533;27;20450;-71
2023/03/12 00:23:07;;;;;;;16.50;11.43;;;-0.90;84.70;;;-1.34;76.41;97638.38;5093641;28;20491;-69
2023/03/12 00:25:34;;;;;;;13.83;10.47;;;-0.90;84.80;;;-1.35;75.83;97634.06;5087217;28;20455;-70
2023/03/12 00:28:01;;;;;;;16.30;10.73;;;-0.90;85.10;;;-1.40;76.44;97633.69;5099138;28;20457;-70
2023/03/12 00:30:29;;;;;;;15.87;11.10;;;-1.00;84.50;;;-1.55;76.51;97626.22;5096588;28;20458;-68
2023/03/12 00:32:56;;;;;;;12.00;10.70;;;-1.00;84.80;;;-1.41;76.16;97634.66;5091324;28;20520;-68
2023/03/12 00:35:24;;;;;;;13.70;10.70;;;-1.00;85.40;;;-1.34;76.12;97635.72;5099397;28;20839;-69
2023/03/12 00:37:52;;;;;;;14.60;10.27;;;-1.00;85.40;;;-1.39;76.56;97635.34;5091307;28;20960;-68
2023/03/12 00:40:21;;;;;;;13.40;11.03;;;-1.00;85.60;;;-1.38;76.38;97639.66;5137055;27;20437;-70
2023/03/12 00:42:48;;;;;;;13.10;10.20;;;-1.00;85.60;;;-1.44;76.87;97639.28;5110191;28;20472;-70
2023/03/12 00:45:15;;;;;;;15.23;10.87;;;-1.00;86.10;;;-1.35;76.14;97636.72;5109174;28;20953;-68
2023/03/12 00:47:42;;;;;;;13.17;10.37;;;-1.00;85.70;;;-1.39;76.46;97624.75;5095492;28;20538;-70
2023/03/12 00:50:11;;;;;;;13.03;9.87;;;-1.00;87.10;;;-1.23;76.11;97632.88;5109396;27;20462;-69
2023/03/12 00:52:38;;;;;;;13.33;10.57;;;-1.00;87.40;;;-1.45;76.79;97620.88;5092037;28;20545;-70
2023/03/12 00:55:06;;;;;;;14.00;10.37;;;-0.90;86.90;;;-1.33;76.24;97630.28;5089106;28;20446;-70
2023/03/12 00:57:34;;;;;;;17.33;9.50;;;-0.90;86.40;;;-1.43;75.71;97603.84;5114959;27;20459;-71
2023/03/12 01:00:02;;;;;;;13.00;10.27;;;-0.80;84.70;;;-1.43;76.53;97619.75;5091058;28;20965;-70
2023/03/12 01:02:29;;;;;;;11.53;9.67;;;-0.90;84.80;;;-1.62;76.34;97614.53;5101060;28;20504;-72
2023/03/12 01:04:57;;;;;;;15.43;10.37;;;-1.00;84.80;;;-1.78;77.54;97618.66;5100179;28;20515;-70
2023/03/12 01:07:25;;;;;;;12.63;9.33;;;-1.20;85.20;;;-1.68;77.03;97620.44;5088309;28;20502;-71
2023/03/12 01:09:52;;;;;;;13.47;9.70;;;-1.30;85.90;;;-2.21;77.22;97548.59;5129877;27;20455;-69
2023/03/12 01:12:19;;;;;;;14.27;9.90;;;-1.40;86.70;;;-1.91;77.47;97616.38;5104974;27;20453;-71
2023/03/12 01:14:48;;;;;;;13.83;9.90;;;-1.40;86.70;;;-1.94;77.80;97602.56;5081413;28;20462;-70
2023/03/12 01:17:15;;;;;;;12.90;9.13;;;-1.40;87.80;;;-1.90;77.75;97606.59;5098036;28;20462;-70
2023/03/12 01:19:43;;;;;;;12.03;9.53;;;-1.50;88.20;;;-2.15;77.91;97551.50;5089731;28;20453;-70
2023/03/12 01:22:10;;;;;;;12.17;9.13;;;-1.40;89.70;;;-1.59;77.05;97623.03;5082764;28;20456;-70
2023/03/12 01:24:37;;;;;;;10.10;9.13;;;-1.20;88.80;;;-1.72;77.42;97620.75;5084492;28;20469;-70
2023/03/12 01:27:05;;;;;;;11.53;8.87;;;-1.20;86.70;;;-1.85;77.15;97610.47;5091760;27;20465;-70
2023/03/12 01:29:32;;;;;;;10.40;7.97;;;-1.20;86.00;;;-2.44;77.37;97510.13;5102436;28;20526;-70
2023/03/12 01:32:01;;;;;;;12.83;9.47;;;-1.30;86.30;;;-1.91;77.57;97623.47;5100758;27;20878;-70
2023/03/12 01:34:29;;;;;;;13.70;10.10;;;-1.30;85.90;;;-1.81;77.18;97620.78;5084334;28;20459;-70
2023/03/12 01:36:56;;;;;;;11.73;9.50;;;-1.30;86.00;;;-1.82;77.27;97624.41;5113494;27;20492;-72
2023/03/12 01:39:24;;;;;;;11.30;9.07;;;-1.40;86.00;;;-1.83;77.50;97626.22;5091487;28;20442;-71
2023/03/12 01:41:52;;;;;;;12.67;10.10;;;-1.40;87.20;;;-1.90;77.33;97627.78;5095945;27;20461;-71
2023/03/12 01:44:19;;;;;;;13.83;9.77;;;-1.40;86.40;;;-1.97;77.67;97621.41;5086854;28;20478;-72
2023/03/12 01:46:46;;;;;;;11.07;8.67;;;-1.40;86.70;;;-1.98;77.78;97622.38;5099748;28;20973;-70
2023/03/12 01:49:20;;;;;;;13.73;9.43;;;-1.50;86.60;;;-1.95;77.23;97622.09;5097809;28;20465;-70
2023/03/12 01:51:52;;;;;;;16.40;9.50;;;-1.50;86.10;;;-2.05;77.34;97612.34;5088545;28;20491;-71
2023/03/12 01:54:24;;;;;;;9.87;7.93;;;-1.50;87.70;;;-2.01;77.88;97621.69;5089790;28;20525;-71
2023/03/12 01:56:52;;;;;;;15.83;8.27;;;-1.50;87.20;;;-2.12;78.24;97611.28;5099700;28;20452;-70
2023/03/12 01:59:25;;;;;;;12.70;8.10;;;-1.50;87.20;;;-2.19;78.21;97596.97;5088061;28;20466;-71
2023/03/12 02:01:53;;;;;;;10.50;8.53;;;-1.60;87.10;;;-2.14;77.97;97607.94;5087186;28;20535;-70
2023/03/12 02:04:24;;;;;;;9.77;8.77;;;-1.60;87.10;;;-2.22;78.25;97603.38;5101286;28;21031;-71
2023/03/12 02:06:58;;;;;;;11.37;8.53;;;-1.70;88.30;;;-2.16;78.30;97612.56;5098021;28;20504;-72
2023/03/12 02:09:26;;;;;;;9.90;7.57;;;-1.70;88.40;;;-2.47;78.61;97597.72;5088012;28;20568;-71
2023/03/12 02:11:53;;;;;;;9.87;7.53;;;-1.80;88.30;;;-2.40;79.28;97611.22;5100966;28;20522;-72
2023/03/12 02:14:21;;;;;;;9.83;7.87;;;-1.90;89.40;;;-2.47;79.31;97615.44;5090512;28;21009;-71
2023/03/12 02:16:48;;;;;;;12.67;8.37;;;-1.90;90.20;;;-2.58;79.92;97609.31;5079578;28;20952;-73
2023/03/12 02:19:24;;;;;;;13.60;7.93;;;-2.00;90.20;;;-2.59;79.97;97589.13;5082935;28;20430;-72
2023/03/12 02:21:51;;;;;;;9.97;7.87;;;-1.90;90.80;;;-2.33;79.60;97612.34;5082263;28;20455;-71
2023/03/12 02:24:28;;;;;;;11.60;8.10;;;-1.90;91.10;;;-2.43;79.75;97590.34;5086258;28;20966;-72
2023/03/12 02:26:58;;;;;;;10.13;8.10;;;-1.80;91.00;;;-2.26;79.78;97612.59;5109641;27;20468;-73
2023/03/12 02:29:28;;;;;;;12.77;8.73;;;-1.70;90.90;;;-2.27;79.37;97584.47;5096086;28;20525;-73
2023/03/12 02:32:00;;;;;;;10.30;8.20;;;-1.70;90.40;;;-2.10;79.09;97598.72;5114031;28;20456;-73
2023/03/12 02:34:27;;;;;;;11.43;8.17;;;-1.60;90.70;;;-1.95;78.73;97614.16;5106154;28;20453;-72
2023/03/12 02:36:54;;;;;;;9.70;7.93;;;-1.60;90.10;;;-1.93;78.48;97601.59;5090387;28;20442;-72
2023/03/12 02:39:22;;;;;;;15.33;7.90;;;-1.50;90.40;;;-2.12;78.91;97595.41;5092704;28;20446;-71
2023/03/12 02:41:53;;;;;;;8.37;7.40;;;-1.50;89.60;;;-2.02;79.49;97612.09;5114406;27;20457;-73
2023/03/12 02:44:23;;;;;;;11.30;8.27;;;-1.50;89.80;;;-1.80;78.59;97611.88;5108241;28;21010;-71
2023/03/12 02:46:53;;;;;;;11.53;7.10;;;-1.40;89.90;;;-1.75;78.44;97609.59;5095118;28;20449;-71
2023/03/12 02:49:23;;;;;;;10.53;7.13;;;-1.30;89.20;;;-1.88;78.72;97616.06;5112629;27;20969;-72
2023/03/12 02:51:50;;;;;;;10.83;7.73;;;-1.30;88.10;;;-1.82;78.34;97614.66;5100038;27;20454;-71
2023/03/12 02:54:20;;;;;;;11.93;7.80;;;-1.30;88.20;;;-1.76;78.38;97622.00;5111305;28;20453;-70
2023/03/12 02:56:48;;;;;;;10.13;7.70;;;-1.30;89.10;;;-1.76;77.79;97629.94;5108964;28;20458;-73
2023/03/12 02:59:19;;;;;;;10.77;7.27;;;-1.20;87.40;;;-1.93;78.34;97618.31;5093409;28;20441;-71
2023/03/12 03:01:53;;;;;;;7.43;6.63;;;-1.20;87.10;;;-2.04;78.58;97611.41;5090614;28;20455;-71
2023/03/12 03:04:20;;;;;;;9.97;7.03;;;-1.30;87.90;;;-1.78;78.21;97631.91;5127000;27;20836;-72
2023/03/12 03:06:48;;;;;;;9.43;6.97;;;-1.20;87.90;;;-1.81;78.32;97623.44;5097160;28;21053;-72
2023/03/12 03:09:16;;;;;;;10.90;7.17;;;-1.20;87.90;;;-1.52;77.84;97633.03;5104533;28;20449;-71
2023/03/12 03:11:43;;;;;;;10.70;9.20;;;-1.20;88.00;;;-1.78;77.70;97625.78;5111576;28;20506;-71
2023/03/12 03:14:10;;;;;;;9.53;7.90;;;-1.10;86.30;;;-1.76;77.94;97624.66;5128291;27;20447;-73
2023/03/12 03:16:38;;;;;;;10.90;7.30;;;-1.20;86.60;;;-1.62;77.34;97619.84;5107691;28;20443;-71
2023/03/12 03:19:06;;;;;;;12.53;8.50;;;-1.10;86.40;;;-1.82;76.83;97580.22;5098468;28;20468;-73
2023/03/12 03:21:34;;;;;;;11.33;8.00;;;-1.00;85.80;;;-1.54;76.89;97638.50;5089992;28;20823;-71
2023/03/12 03:24:01;;;;;;;8.57;7.57;;;-1.00;85.30;;;-1.40;76.52;97639.00;5098045;28;20500;-71
2023/03/12 03:26:29;;;;;;;11.03;8.30;;;-1.00;85.50;;;-1.50;76.78;97639.88;5094204;27;20460;-72
2023/03/12 03:28:56;;;;;;;9.43;8.47;;;-1.00;84.50;;;-1.34;76.47;97633.94;5090314;28;20458;-71
2023/03/12 03:31:23;;;;;;;9.07;7.27;;;-0.90;84.60;;;-1.53;76.00;97634.88;5124248;27;20494;-71
2023/03/12 03:33:51;;;;;;;15.43;7.90;;;-1.00;83.70;;;-1.67;75.68;97606.22;5090276;28;20518;-70
2023/03/12 03:36:22;;;;;;;13.27;8.60;;;-1.00;83.20;;;-1.54;75.71;97638.50;5103497;27;20446;-73
2023/03/12 03:38:49;;;;;;;8.47;7.50;;;-1.00;83.50;;;-1.62;75.78;97620.69;5094099;28;20505;-74
2023/03/12 03:41:17;;;;;;;8.93;7.90;;;-1.00;82.80;;;-1.68;75.81;97634.50;5088172;28;20448;-72
2023/03/12 03:43:45;;;;;;;10.40;7.90;;;-1.00;82.50;;;-1.71;76.30;97645.41;5110142;27;20473;-72
2023/03/12 03:46:14;;;;;;;10.93;8.30;;;-1.10;82.80;;;-1.73;76.91;97645.56;5090554;28;20527;-73
2023/03/12 03:48:41;;;;;;;10.27;8.20;;;-1.10;82.90;;;-1.66;76.03;97647.63;5092985;28;20451;-73
2023/03/12 03:51:10;;;;;;;10.57;7.30;;;-1.10;83.30;;;-1.82;76.85;97646.44;5096640;28;20493;-71
2023/03/12 03:53:39;;;;;;;12.40;8.30;;;-1.10;83.50;;;-2.22;76.04;97552.25;5098023;28;20461;-71
2023/03/12 03:56:09;;;;;;;8.77;7.20;;;-1.00;83.50;;;-1.64;76.11;97651.81;5102647;28;20802;-70
2023/03/12 03:58:36;;;;;;;9.93;7.93;;;-1.00;83.30;;;-1.50;76.32;97649.66;5093996;28;20445;-71
2023/03/12 04:01:05;;;;;;;10.07;7.03;;;-1.00;83.40;;;-1.45;75.97;97645.53;5110490;27;20512;-70
2023/03/12 04:03:32;;;;;;;9.77;7.90;;;-1.00;83.10;;;-1.37;75.33;97649.28;5100444;28;20449;-70
2023/03/12 04:06:02;;;;;;;13.17;8.27;;;-1.00;83.10;;;-1.62;75.94;97652.47;5118818;27;20455;-71
2023/03/12 04:08:34;;;;;;;9.27;7.07;;;-1.00;82.90;;;-1.53;76.13;97644.63;5111453;27;20503;-69
2023/03/12 04:11:09;;;;;;;9.90;7.60;;;-1.00;83.70;;;-1.59;76.51;97651.38;5111654;28;20437;-70
2023/03/12 04:13:37;;;;;;;13.27;8.00;;;-1.00;83.60;;;-1.49;76.03;97644.19;5111944;28;20444;-70
2023/03/12 04:16:05;;;;;;;9.57;7.30;;;-1.00;83.40;;;-1.38;75.33;97637.84;5090142;28;20458;-70
2023/03/12 04:18:32;;;;;;;8.80;7.40;;;-0.90;83.30;;;-1.44;75.64;97634.00;5093712;28;20461;-71
2023/03/12 04:20:59;;;;;;;11.43;7.43;;;-0.90;82.90;;;-1.44;75.31;97618.09;5104175;28;20456;-71
2023/03/12 04:23:27;;;;;;;10.80;8.30;;;-0.90;82.70;;;-1.52;75.01;97599.44;5103914;27;20446;-72
2023/03/12 04:25:54;;;;;;;13.37;7.93;;;-0.80;82.10;;;-1.20;75.10;97624.63;5120670;27;20893;-72
2023/03/12 04:28:22;;;;;;;12.43;7.93;;;-0.80;81.90;;;-1.30;75.20;97608.78;5098902;28;20451;-71
2023/03/12 04:30:55;;;;;;;11.63;7.80;;;-0.80;82.50;;;-1.07;74.62;97634.84;5110328;27;20455;-72
2023/03/12 04:33:22;;;;;;;10.73;7.23;;;-0.70;81.90;;;-1.30;74.21;97640.59;5101436;28;20694;-74
2023/03/12 04:35:53;;;;;;;11.53;7.53;;;-0.70;81.00;;;-1.19;75.12;97636.06;5093261;28;20460;-71
2023/03/12 04:38:21;;;;;;;9.20;7.80;;;-0.70;81.30;;;-1.23;74.92;97637.31;5092888;28;20981;-71
2023/03/12 04:40:57;;;;;;;12.30;8.43;;;-0.80;81.30;;;-1.35;75.05;97636.72;5091993;28;20461;-73
2023/03/12 04:43:26;;;;;;;10.53;7.80;;;-0.90;81.70;;;-1.19;74.58;97636.88;5086074;28;20523;-72
2023/03/12 04:45:54;;;;;;;9.40;7.43;;;-0.80;82.30;;;-1.21;74.48;97638.84;5082198;28;20488;-71
2023/03/12 04:48:21;;;;;;;8.77;7.27;;;-0.80;81.50;;;-1.01;74.30;97633.41;5094697;28;20453;-73
2023/03/12 04:50:48;;;;;;;9.90;7.10;;;-0.70;82.00;;;-1.09;74.33;97626.22;5115572;27;21031;-72
2023/03/12 04:53:15;;;;;;;8.00;6.00;;;-0.70;81.40;;;-1.01;74.12;97630.75;5102826;28;20450;-71
2023/03/12 04:55:43;;;;;;;8.37;7.50;;;-0.60;81.40;;;-1.11;74.22;97624.72;5104049;28;20442;-72
2023/03/12 04:58:10;;;;;;;8.60;7.10;;;-0.70;80.90;;;-1.34;74.63;97617.16;5085898;28;20456;-72
2023/03/12 05:00:39;;;;;;;10.97;8.30;;;-0.70;80.80;;;-1.21;74.24;97607.03;5086895;28;20503;-72
2023/03/12 05:03:07;;;;;;;12.63;7.63;;;-0.60;80.60;;;-1.17;74.15;97619.00;5080929;28;20507;-72
2023/03/12 05:05:35;;;;;;;9.70;7.33;;;-0.70;80.50;;;-1.27;73.91;97626.22;5094639;28;20485;-71
2023/03/12 05:08:02;;;;;;;9.63;6.90;;;-0.70;80.10;;;-1.35;74.88;97624.31;5105377;27;20455;-70
2023/03/12 05:10:30;;;;;;;9.00;6.37;;;-0.80;80.70;;;-1.39;75.32;97611.50;5102979;28;20518;-72
2023/03/12 05:12:57;;;;;;;9.53;7.50;;;-0.80;81.00;;;-1.37;75.23;97633.38;5124927;27;20801;-71
2023/03/12 05:15:24;;;;;;;9.93;7.10;;;-0.90;82.20;;;-1.48;75.57;97631.78;5108650;28;21185;-72
2023/03/12 05:18:01;;;;;;;8.93;7.37;;;-0.90;82.40;;;-1.37;74.82;97613.00;5076241;28;20555;-72
2023/03/12 05:20:28;;;;;;;8.93;7.70;;;-0.90;82.90;;;-1.66;75.49;97586.69;5105474;27;20458;-72
2023/03/12 05:22:55;;;;;;;7.73;7.00;;;-0.90;82.70;;;-1.41;75.21;97624.88;5094080;28;20515;-71
2023/03/12 05:25:23;;;;;;;10.17;7.27;;;-0.90;82.90;;;-1.82;76.20;97614.66;5115675;27;20466;-72
2023/03/12 05:27:50;;;;;;;10.33;6.90;;;-1.00;82.70;;;-1.64;76.76;97632.41;5085888;28;20454;-71
2023/03/12 05:30:18;;;;;;;12.73;7.07;;;-1.00;83.80;;;-1.78;76.68;97600.13;5087780;28;20444;-72
2023/03/12 05:32:45;;;;;;;10.63;7.50;;;-1.00;84.70;;;-1.43;76.21;97633.00;5086506;28;20442;-72
2023/03/12 05:35:14;;;;;;;11.03;7.37;;;-1.00;84.20;;;-1.41;76.23;97632.03;5096152;28;20444;-72
2023/03/12 05:37:42;;;;;;;8.20;7.03;;;-0.90;84.00;;;-1.24;76.41;97630.34;5098352;28;20532;-72
2023/03/12 05:40:11;;;;;;;10.53;7.43;;;-0.80;84.70;;;-1.38;75.83;97621.13;5105132;28;20547;-71
2023/03/12 05:42:38;;;;;;;9.37;7.63;;;-0.80;83.00;;;-1.58;76.15;97610.63;5103707;27;21029;-72
2023/03/12 05:45:07;;;;;;;8.43;6.10;;;-0.80;82.60;;;-1.54;76.31;97614.66;5096900;28;20477;-72
2023/03/12 05:47:35;;;;;;;12.17;7.33;;;-0.80;82.40;;;-1.31;75.71;97630.13;5111442;27;20450;-72
2023/03/12 05:50:02;;;;;;;9.90;7.70;;;-0.70;82.40;;;-1.34;75.46;97622.47;5104171;28;20486;-71
2023/03/12 05:52:31;;;;;;;7.50;6.67;;;-0.70;82.00;;;-1.27;75.72;97617.41;5089459;28;21283;-72
2023/03/12 05:54:58;;;;;;;8.67;6.90;;;-0.70;81.80;;;-1.17;75.05;97621.66;5085954;28;20564;-73
2023/03/12 05:57:25;;;;;;;9.60;6.60;;;-0.70;81.80;;;-1.12;74.44;97594.69;5085890;28;20451;-71
2023/03/12 05:59:53;;;;;;;8.87;7.47;;;-0.50;81.50;;;-0.91;74.01;97628.88;5085834;28;20565;-71
2023/03/12 06:02:21;;;;;;;7.23;6.30;;;-0.50;81.00;;;-1.05;74.15;97608.19;5087264;28;20443;-72
2023/03/12 06:04:48;;;;;;;9.23;6.67;;;-0.50;80.10;;;-0.69;73.22;97626.72;5087170;28;20465;-72
2023/03/12 06:07:15;;;;;;;10.03;6.67;;;-0.30;79.90;;;-0.95;73.34;97632.81;5111060;27;20461;-74
2023/03/12 06:09:43;;;;;;;7.83;6.07;;;-0.40;79.30;;;-0.90;72.99;97641.16;5081170;28;20451;-71
2023/03/12 06:12:11;;;;;;;8.57;6.30;;;-0.40;79.00;;;-0.68;72.83;97631.06;5088793;28;21045;-71
2023/03/12 06:14:38;;;;;;;7.87;7.13;;;-0.40;79.10;;;-0.83;73.03;97632.56;5085383;28;20457;-69
2023/03/12 06:17:05;;;;;;;8.93;6.80;;;-0.40;78.90;;;-0.92;72.85;97632.50;5096595;28;20457;-69
2023/03/12 06:19:33;;;;;;;8.10;6.70;;;-0.40;78.70;;;-0.73;72.58;97614.75;5103523;28;20438;-69
2023/03/12 06:22:00;;;;;;;8.43;6.23;;;-0.30;79.00;;;-0.23;71.59;97631.88;5095870;28;20459;-69
2023/03/12 06:24:27;;;;;;;7.40;5.80;;;0.00;78.60;;;-0.04;71.07;97641.47;5080235;28;20973;-70
2023/03/12 06:26:56;;;;;;;8.30;6.30;;;0.20;77.70;;;-0.46;71.29;97631.56;5104558;28;20513;-69
2023/03/12 06:29:23;;;;;;;7.03;6.33;;;0.10;76.80;;;-0.34;71.41;97625.00;5095902;28;20435;-68
2023/03/12 06:31:51;;;;;;;7.30;6.20;;;0.10;77.10;;;-0.15;70.69;97623.13;5104212;28;20446;-68
2023/03/12 06:34:18;;;;;;;8.47;6.07;;;0.30;77.00;;;0.02;69.87;97631.19;5104663;28;20539;-67
2023/03/12 06:36:45;;;;;;;7.70;5.40;;;0.40;76.30;;;0.36;69.04;97641.81;5083196;28;21006;-70
2023/03/12 06:39:13;;;;;;;11.93;5.90;;;0.60;75.80;;;0.27;68.80;97638.31;5113569;27;20562;-71
2023/03/12 06:41:40;;;;;;;6.13;5.50;;;0.70;75.30;;;0.45;67.89;97633.88;5086288;28;20766;-68
2023/03/12 06:44:09;;;;;;;8.40;6.07;;;0.80;74.80;;;0.53;68.05;97636.56;5075562;28;20456;-70
2023/03/12 06:46:36;;;;;;;6.97;6.07;;;0.80;74.50;;;0.60;66.98;97647.41;5089251;28;20502;-69
2023/03/12 06:49:04;;;;;;;8.40;5.33;;;1.00;73.90;;;0.67;66.92;97648.41;5085776;28;20450;-71
2023/03/12 06:51:31;;;;;;;9.60;6.10;;;1.20;73.50;;;1.04;65.74;97649.84;5086751;28;20515;-72
2023/03/12 06:53:59;;;;;;;10.67;6.40;;;1.30;73.20;;;0.89;65.42;97664.78;5078524;28;20475;-70
2023/03/12 06:56:27;;;;;;;10.03;5.20;;;1.40;72.60;;;0.81;64.75;97658.44;5077414;28;20518;-71
2023/03/12 06:58:54;;;;;;;6.47;5.87;;;1.40;71.70;;;0.87;65.18;97664.94;5091878;28;20858;-73
2023/03/12 07:01:23;;;;;;;8.30;6.50;;;1.40;71.80;;;0.70;66.09;97656.09;5093074;28;20455;-70
2023/03/12 07:03:50;;;;;;;7.90;5.97;;;1.30;72.00;;;1.02;65.20;97646.53;5101348;28;20455;-70
2023/03/12 07:06:20;;;;;;;6.70;5.93;;;1.40;71.80;;;1.01;64.31;97652.84;5111613;27;20556;-71
2023/03/12 07:08:48;;;;;;;6.03;5.00;;;1.50;71.30;;;1.17;64.06;97638.72;5095378;28;20459;-71
2023/03/12 07:11:16;;;;;;;7.73;5.50;;;1.70;71.10;;;1.18;64.00;97635.06;5089531;28;20505;-66
2023/03/12 07:13:44;;;;;;;7.60;5.30;;;1.70;70.40;;;1.44;63.34;97633.22;5087944;28;20451;-69
2023/03/12 07:16:11;;;;;;;6.10;5.50;;;1.80;70.30;;;1.61;62.81;97642.06;5088641;28;20509;-72
2023/03/12 07:18:40;;;;;;;9.03;5.10;;;1.90;70.10;;;1.59;62.18;97638.72;5087819;28;20458;-70
2023/03/12 07:21:07;;;;;;;8.20;5.10;;;2.10;69.40;;;1.58;61.98;97642.41;5070218;28;21015;-70
2023/03/12 07:23:34;;;;;;;10.10;5.77;;;2.10;69.40;;;1.84;61.85;97636.88;5133172;27;20451;-71
2023/03/12 07:26:04;;;;;;;8.40;4.83;;;2.20;69.30;;;2.10;61.27;97635.81;5082981;28;21035;-71
2023/03/12 07:28:31;;;;;;;6.53;5.10;;;2.30;69.30;;;2.30;60.08;97627.44;5088134;28;20452;-67
2023/03/12 07:31:03;;;;;;;7.33;4.87;;;2.60;68.30;;;2.29;61.07;97625.78;5083906;28;20458;-71
2023/03/12 07:33:30;;;;;;;5.90;4.47;;;2.70;68.30;;;2.11;59.87;97581.50;5084341;28;20451;-69
2023/03/12 07:35:59;;;;;;;6.30;5.57;;;2.80;67.50;;;2.21;59.68;97619.47;5091451;28;20802;-72
2023/03/12 07:38:26;;;;;;;6.40;5.20;;;2.80;67.00;;;2.37;59.46;97607.09;5086366;28;20460;-71
2023/03/12 07:40:56;;;;;;;5.90;4.77;;;2.90;66.60;;;2.11;60.07;97613.50;5105449;27;21071;-72
2023/03/12 07:43:24;;;;;;;5.67;4.50;;;2.80;66.40;;;2.43;59.24;97601.06;5096272;28;20451;-72
2023/03/12 07:45:52;;;;;;;5.17;4.33;;;2.90;66.40;;;2.97;58.40;97597.59;5096387;28;21109;-70
2023/03/12 07:48:19;;;;;;;8.83;5.00;;;3.10;66.00;;;3.02;57.07;97596.22;5072032;28;20463;-73
2023/03/12 07:50:47;;;;;;;6.20;4.70;;;3.40;64.90;;;3.18;57.13;97603.28;5079240;28;20455;-76
2023/03/12 07:53:16;;;;;;;6.90;5.53;;;3.50;64.30;;;3.27;56.74;97607.56;5079142;28;20472;-73
2023/03/12 07:55:44;;;;;;;6.83;4.57;;;3.50;64.20;;;3.18;56.16;97613.97;5116357;27;20548;-71
2023/03/12 07:58:12;;;;;;;6.93;4.60;;;3.60;63.20;;;3.23;56.20;97603.56;5094677;27;20449;-74
2023/03/12 08:00:40;;;;;;;4.37;3.97;;;3.60;62.70;;;3.28;56.23;97603.88;5091190;27;20568;-72
2023/03/12 08:03:07;;;;;;;5.57;4.20;;;3.50;62.80;;;3.46;56.15;97600.88;5079301;28;20462;-70
2023/03/12 08:05:35;;;;;;;5.63;4.77;;;3.70;63.20;;;3.60;55.81;97607.28;5115880;27;20483;-72
2023/03/12 08:08:02;;;;;;;5.93;4.87;;;3.90;62.10;;;4.02;55.42;97602.38;5094993;28;20469;-75
2023/03/12 08:10:31;;;;;;;5.90;4.00;;;4.20;62.20;;;4.11;53.86;97595.06;5085118;28;20461;-71
2023/03/12 08:12:58;;;;;;;6.03;3.90;;;4.30;61.20;;;4.46;52.77;97589.97;5081901;28;20447;-73
2023/03/12 08:15:26;;;;;;;4.80;4.33;;;4.60;60.10;;;4.29;53.09;97604.56;5081215;28;20807;-72
2023/03/12 08:17:53;;;;;;;6.73;3.83;;;4.60;59.60;;;4.20;53.62;97598.50;5092133;28;20460;-77
2023/03/12 08:20:20;;;;;;;5.40;4.13;;;4.40;59.50;;;4.23;52.32;97532.09;5097934;27;20860;-75
2023/03/12 08:22:49;;;;;;;6.13;4.37;;;4.80;59.40;;;4.21;52.65;97603.66;5086908;27;20459;-72
2023/03/12 08:25:17;;;;;;;6.30;3.90;;;4.70;58.60;;;4.53;52.27;97606.97;5068129;28;20595;-71
2023/03/12 08:27:45;;;;;;;8.67;4.53;;;4.70;59.10;;;4.65;53.29;97606.47;5082976;28;20822;-70
2023/03/12 08:30:13;;;;;;;6.60;4.00;;;4.70;59.20;;;4.79;51.71;97605.63;5098639;27;20453;-69
2023/03/12 08:32:40;;;;;;;5.07;3.80;;;5.00;58.10;;;4.75;52.50;97609.66;5097424;27;20460;-70
2023/03/12 08:35:09;;;;;;;5.27;4.03;;;5.00;57.90;;;4.28;52.47;97613.63;5077593;28;20447;-72
2023/03/12 08:37:37;;;;;;;4.50;4.03;;;4.80;57.50;;;4.76;52.01;97605.97;5094985;28;20447;-72
2023/03/12 08:40:11;;;;;;;5.47;4.37;;;4.80;57.70;;;4.65;51.69;97615.31;5109509;27;20456;-72
2023/03/12 08:42:39;;;;;;;34.27;19.07;;;4.90;57.20;;;4.04;53.69;97607.53;5080520;28;20521;-69
2023/03/12 08:45:10;;;;;;;5.03;4.53;;;4.60;57.30;;;4.19;53.22;97607.53;5079841;28;20468;-71
2023/03/12 08:47:40;;;;;;;8.70;4.90;;;4.60;57.90;;;4.58;52.36;97600.22;5067201;28;20511;-70
2023/03/12 08:50:10;;;;;;;5.37;4.87;;;4.90;57.80;;;4.67;52.17;97599.91;5081528;28;20849;-71
2023/03/12 08:52:38;;;;;;;5.43;4.33;;;5.00;57.50;;;5.04;51.62;97607.94;5071478;28;21350;-71
2023/03/12 08:55:06;;;;;;;6.33;4.73;;;5.20;57.50;;;5.16;50.94;97596.72;5071760;28;20455;-71
2023/03/12 08:57:33;;;;;;;5.17;4.10;;;5.40;57.00;;;4.48;52.55;97596.00;5103312;27;20452;-72
2023/03/12 09:00:00;;;;;;;7.50;4.23;;;5.20;56.70;;;4.40;53.13;97596.09;5088100;28;20456;-69
2023/03/12 09:02:29;;;;;;;8.03;4.40;;;4.90;57.20;;;4.71;52.14;97600.38;5075993;28;20449;-71
2023/03/12 09:04:56;;;;;;;6.90;5.20;;;5.00;57.40;;;5.09;51.51;97589.47;5091799;27;20489;-71
2023/03/12 09:07:23;;;;;;;6.90;5.10;;;5.30;57.50;;;4.89;52.58;97593.75;5088867;28;20496;-69
2023/03/12 09:09:50;;;;;;;9.30;5.47;;;5.30;57.40;;;4.87;52.41;97599.31;5079329;28;20467;-71
2023/03/12 09:12:17;;;;;;;5.13;4.63;;;5.30;57.20;;;4.81;52.45;97606.25;5100005;27;20464;-71
2023/03/12 09:14:45;;;;;;;4.60;3.87;;;5.30;57.00;;;4.79;52.96;97602.94;5082559;28;20479;-72
2023/03/12 09:17:12;;;;;;;5.53;3.67;;;5.20;57.20;;;4.87;52.14;97601.16;5082884;28;20472;-69
2023/03/12 09:19:41;;;;;;;4.50;3.90;;;5.30;57.10;;;5.20;52.04;97587.28;5088295;28;20467;-71
2023/03/12 09:22:11;;;;;;;6.73;5.07;;;5.40;57.30;;;5.35;51.79;97576.50;5082846;28;20866;-72
2023/03/12 09:24:38;;;;;;;5.40;3.90;;;5.70;57.00;;;5.72;51.07;97576.38;5082549;28;20457;-70
2023/03/12 09:27:06;;;;;;;5.13;3.60;;;5.90;56.80;;;6.10;50.33;97578.72;5089185;28;20475;-70
2023/03/12 09:29:35;;;;;;;4.90;4.10;;;6.20;56.60;;;5.95;50.82;97568.91;5106971;28;20557;-69
2023/03/12 09:32:02;;;;;;;5.63;3.37;;;6.30;56.50;;;6.14;50.72;97582.69;5090473;28;20465;-70
2023/03/12 09:34:29;;;;;;;5.60;3.90;;;6.40;56.20;;;6.09;50.46;97577.91;5077960;28;20957;-74
2023/03/12 09:36:58;;;;;;;7.13;3.60;;;6.30;56.10;;;6.06;51.19;97578.28;5084824;28;20487;-70
2023/03/12 09:39:25;;;;;;;6.37;3.60;;;6.40;56.20;;;6.06;50.80;97585.50;5087748;28;20450;-71
2023/03/12 09:41:53;;;;;;;5.53;3.53;;;6.40;56.20;;;6.37;49.97;97584.22;5081856;28;20578;-72
2023/03/12 09:44:30;;;;;;;5.17;3.60;;;6.60;56.20;;;6.61;49.44;97590.13;5085398;28;20457;-71
2023/03/12 09:47:02;;;;;;;5.10;3.87;;;6.80;55.90;;;5.95;50.60;97585.00;5080691;28;20469;-71
2023/03/12 09:49:39;;;;;;;7.17;3.60;;;6.70;55.30;;;5.99;50.88;97600.69;5076571;28;20913;-70
2023/03/12 09:52:19;;;;;;;4.03;3.63;;;6.50;55.90;;;6.01;51.02;97593.31;5085175;28;20443;-69
2023/03/12 09:54:56;;;;;;;4.53;4.07;;;6.50;55.90;;;6.20;51.36;97584.56;5086341;28;20458;-71
2023/03/12 09:57:27;;;;;;;6.40;3.87;;;6.50;56.10;;;6.12;51.40;97583.91;5081009;28;20550;-70
2023/03/12 09:59:56;;;;;;;5.23;4.00;;;6.60;56.00;;;6.25;51.66;97583.97;5079975;28;21024;-71
2023/03/12 10:03:02;;;;;;;6.53;4.50;;;6.50;56.10;;;6.19;51.95;97593.63;5069088;28;22519;-71
2023/03/12 10:05:38;;;;;;;4.87;3.60;;;6.60;56.40;;;6.21;51.55;97594.28;5082157;28;20456;-72
2023/03/12 10:08:15;;;;;;;4.50;4.10;;;6.60;56.50;;;6.17;51.67;97590.34;5078202;28;20451;-73
2023/03/12 10:10:54;;;;;;;5.93;4.20;;;6.50;56.70;;;6.55;51.08;97580.19;5071202;28;20559;-69
2023/03/12 10:14:04;;;;;;;4.03;2.93;;;6.70;56.70;;;5.75;51.13;97482.16;5089888;28;20544;-70
2023/03/12 10:16:49;;;;;;;4.20;3.70;;;6.80;56.60;;;6.44;51.76;97573.53;5116365;27;20957;-71
2023/03/12 10:19:35;;;;;;;6.33;3.27;;;6.80;56.60;;;6.64;50.86;97579.78;5079079;28;20455;-69
2023/03/12 10:22:08;;;;;;;7.53;3.90;;;7.00;56.50;;;6.59;51.79;97576.91;5085602;28;21213;-69
2023/03/12 10:24:52;;;;;;;4.40;3.07;;;7.00;57.10;;;6.93;51.28;97566.28;5079485;28;20449;-70
2023/03/12 10:27:32;;;;;;;7.90;4.07;;;7.10;57.00;;;7.00;51.73;97564.41;5085534;28;20865;-70